Terminal Aerodrome Forecast
Issued by NWS Sioux Falls, SD

Home | Current Version | Previous Version | Graphics & Text | Print | Product List | Glossary Off
Versions: 1 2 3 4 5 6 7 8 9 10 11 12 13

996
FTUS43 KFSD 272320
TAFFSD
TAF
KFSD 272320Z 2800/2824 13004KT P6SM SCT250
     FM281100 VRB03KT 4SM BR SCT150
     FM281400 08004KT P6SM SCT250
     FM281900 10009KT P6SM BKN250=

USA.gov is the U.S. government's official web portal to all federal, state and local government web resources and services.